sensor_id;sensor_type;location;lat;lon;timestamp;P1;durP1;ratioP1;P2;durP2;ratioP2
54705;SDS011;40603;48.774;8.916;2022-09-01T00:01:42;16.20;;;12.00;;
54705;SDS011;40603;48.774;8.916;2022-09-01T00:04:10;13.20;;;10.55;;
54705;SDS011;40603;48.774;8.916;2022-09-01T00:06:37;13.20;;;10.02;;
54705;SDS011;40603;48.774;8.916;2022-09-01T00:09:07;15.07;;;10.15;;
54705;SDS011;40603;48.774;8.916;2022-09-01T00:11:34;14.85;;;10.25;;
54705;SDS011;40603;48.774;8.916;2022-09-01T00:14:00;14.52;;;10.70;;
54705;SDS011;40603;48.774;8.916;2022-09-01T00:16:27;13.25;;;10.40;;
54705;SDS011;40603;48.774;8.916;2022-09-01T00:18:54;13.60;;;9.73;;
54705;SDS011;40603;48.774;8.916;2022-09-01T00:21:23;13.93;;;11.10;;
54705;SDS011;40603;48.774;8.916;2022-09-01T00:23:50;12.98;;;10.57;;
54705;SDS011;40603;48.774;8.916;2022-09-01T00:26:15;15.75;;;11.55;;
54705;SDS011;40603;48.774;8.916;2022-09-01T00:28:40;16.15;;;10.60;;
54705;SDS011;40603;48.774;8.916;2022-09-01T00:31:06;20.95;;;10.15;;
54705;SDS011;40603;48.774;8.916;2022-09-01T00:33:32;17.88;;;10.05;;
54705;SDS011;40603;48.774;8.916;2022-09-01T00:35:59;16.73;;;9.77;;
54705;SDS011;40603;48.774;8.916;2022-09-01T00:38:24;26.10;;;10.20;;
54705;SDS011;40603;48.774;8.916;2022-09-01T00:40:50;15.85;;;9.70;;
54705;SDS011;40603;48.774;8.916;2022-09-01T00:43:16;23.92;;;10.57;;
54705;SDS011;40603;48.774;8.916;2022-09-01T00:45:45;21.27;;;10.77;;
54705;SDS011;40603;48.774;8.916;2022-09-01T00:48:10;17.77;;;12.55;;
54705;SDS011;40603;48.774;8.916;2022-09-01T00:50:36;27.77;;;12.48;;
54705;SDS011;40603;48.774;8.916;2022-09-01T00:53:03;15.82;;;13.38;;
54705;SDS011;40603;48.774;8.916;2022-09-01T00:55:31;19.55;;;14.32;;
54705;SDS011;40603;48.774;8.916;2022-09-01T00:57:57;25.15;;;12.40;;
54705;SDS011;40603;48.774;8.916;2022-09-01T01:00:25;33.63;;;13.13;;
54705;SDS011;40603;48.774;8.916;2022-09-01T01:02:53;21.70;;;12.80;;
54705;SDS011;40603;48.774;8.916;2022-09-01T01:05:22;28.20;;;12.65;;
54705;SDS011;40603;48.774;8.916;2022-09-01T01:07:51;36.58;;;15.38;;
54705;SDS011;40603;48.774;8.916;2022-09-01T01:10:17;15.18;;;13.38;;
54705;SDS011;40603;48.774;8.916;2022-09-01T01:12:44;21.48;;;13.68;;
54705;SDS011;40603;48.774;8.916;2022-09-01T01:15:10;14.30;;;12.57;;
54705;SDS011;40603;48.774;8.916;2022-09-01T01:17:37;14.07;;;10.90;;
54705;SDS011;40603;48.774;8.916;2022-09-01T01:20:03;13.57;;;11.13;;
54705;SDS011;40603;48.774;8.916;2022-09-01T01:22:51;12.88;;;11.50;;
54705;SDS011;40603;48.774;8.916;2022-09-01T01:25:41;13.25;;;11.05;;
54705;SDS011;40603;48.774;8.916;2022-09-01T01:30:41;19.13;;;10.07;;
54705;SDS011;40603;48.774;8.916;2022-09-01T01:33:08;10.48;;;9.45;;
54705;SDS011;40603;48.774;8.916;2022-09-01T01:35:33;13.00;;;8.45;;
54705;SDS011;40603;48.774;8.916;2022-09-01T01:37:59;24.25;;;10.00;;
54705;SDS011;40603;48.774;8.916;2022-09-01T01:40:26;19.67;;;10.20;;
54705;SDS011;40603;48.774;8.916;2022-09-01T01:42:52;13.60;;;10.05;;
54705;SDS011;40603;48.774;8.916;2022-09-01T01:45:19;12.80;;;9.70;;
54705;SDS011;40603;48.774;8.916;2022-09-01T01:47:47;28.60;;;10.05;;
54705;SDS011;40603;48.774;8.916;2022-09-01T01:50:25;39.55;;;10.25;;
54705;SDS011;40603;48.774;8.916;2022-09-01T01:52:54;35.20;;;9.30;;
54705;SDS011;40603;48.774;8.916;2022-09-01T01:55:21;9.38;;;8.40;;
54705;SDS011;40603;48.774;8.916;2022-09-01T01:57:48;8.98;;;8.07;;
54705;SDS011;40603;48.774;8.916;2022-09-01T02:00:18;9.45;;;8.55;;
54705;SDS011;40603;48.774;8.916;2022-09-01T02:02:47;8.43;;;7.63;;
54705;SDS011;40603;48.774;8.916;2022-09-01T02:05:16;8.65;;;7.85;;
54705;SDS011;40603;48.774;8.916;2022-09-01T02:10:12;14.93;;;9.07;;
54705;SDS011;40603;48.774;8.916;2022-09-01T02:12:38;12.52;;;9.35;;
54705;SDS011;40603;48.774;8.916;2022-09-01T02:15:05;11.70;;;9.50;;
54705;SDS011;40603;48.774;8.916;2022-09-01T02:17:31;13.18;;;9.35;;
54705;SDS011;40603;48.774;8.916;2022-09-01T02:19:56;12.73;;;7.72;;
54705;SDS011;40603;48.774;8.916;2022-09-01T02:22:22;12.10;;;9.25;;
54705;SDS011;40603;48.774;8.916;2022-09-01T02:24:47;9.88;;;8.88;;
54705;SDS011;40603;48.774;8.916;2022-09-01T02:27:13;10.10;;;8.25;;
54705;SDS011;40603;48.774;8.916;2022-09-01T02:29:45;9.95;;;8.18;;
54705;SDS011;40603;48.774;8.916;2022-09-01T02:32:11;12.30;;;8.88;;
54705;SDS011;40603;48.774;8.916;2022-09-01T02:34:36;12.38;;;9.30;;
54705;SDS011;40603;48.774;8.916;2022-09-01T02:37:03;12.95;;;8.40;;
54705;SDS011;40603;48.774;8.916;2022-09-01T02:39:30;9.52;;;8.13;;
54705;SDS011;40603;48.774;8.916;2022-09-01T02:41:57;12.20;;;8.43;;
54705;SDS011;40603;48.774;8.916;2022-09-01T02:44:23;13.25;;;8.02;;
54705;SDS011;40603;48.774;8.916;2022-09-01T02:46:49;13.88;;;7.43;;
54705;SDS011;40603;48.774;8.916;2022-09-01T02:49:16;11.32;;;7.53;;
54705;SDS011;40603;48.774;8.916;2022-09-01T02:51:46;12.32;;;7.78;;
54705;SDS011;40603;48.774;8.916;2022-09-01T02:54:14;12.82;;;8.60;;
54705;SDS011;40603;48.774;8.916;2022-09-01T02:56:41;14.90;;;7.78;;
54705;SDS011;40603;48.774;8.916;2022-09-01T02:59:12;10.65;;;8.93;;
54705;SDS011;40603;48.774;8.916;2022-09-01T03:01:39;11.30;;;8.02;;
54705;SDS011;40603;48.774;8.916;2022-09-01T03:04:05;9.38;;;7.70;;
54705;SDS011;40603;48.774;8.916;2022-09-01T03:06:33;15.00;;;9.80;;
54705;SDS011;40603;48.774;8.916;2022-09-01T03:09:00;11.75;;;9.13;;
54705;SDS011;40603;48.774;8.916;2022-09-01T03:11:28;11.82;;;9.18;;
54705;SDS011;40603;48.774;8.916;2022-09-01T03:13:55;10.25;;;8.63;;
54705;SDS011;40603;48.774;8.916;2022-09-01T03:16:21;15.07;;;8.02;;
54705;SDS011;40603;48.774;8.916;2022-09-01T03:18:46;10.95;;;8.20;;
54705;SDS011;40603;48.774;8.916;2022-09-01T03:21:11;12.05;;;9.13;;
54705;SDS011;40603;48.774;8.916;2022-09-01T03:23:39;17.38;;;9.98;;
54705;SDS011;40603;48.774;8.916;2022-09-01T03:26:06;11.98;;;8.63;;
54705;SDS011;40603;48.774;8.916;2022-09-01T03:28:31;20.50;;;11.13;;
54705;SDS011;40603;48.774;8.916;2022-09-01T03:30:57;28.83;;;12.73;;
54705;SDS011;40603;48.774;8.916;2022-09-01T03:33:23;28.25;;;13.25;;
54705;SDS011;40603;48.774;8.916;2022-09-01T03:35:49;24.42;;;14.82;;
54705;SDS011;40603;48.774;8.916;2022-09-01T03:38:15;20.80;;;14.07;;
54705;SDS011;40603;48.774;8.916;2022-09-01T03:40:52;17.20;;;13.05;;
54705;SDS011;40603;48.774;8.916;2022-09-01T03:43:23;17.02;;;12.52;;
54705;SDS011;40603;48.774;8.916;2022-09-01T03:45:49;15.50;;;11.60;;
54705;SDS011;40603;48.774;8.916;2022-09-01T03:48:14;21.98;;;13.70;;
54705;SDS011;40603;48.774;8.916;2022-09-01T03:50:41;17.80;;;12.60;;
54705;SDS011;40603;48.774;8.916;2022-09-01T03:53:09;19.27;;;13.65;;
54705;SDS011;40603;48.774;8.916;2022-09-01T03:55:35;15.65;;;12.77;;
54705;SDS011;40603;48.774;8.916;2022-09-01T03:58:03;14.68;;;12.05;;
54705;SDS011;40603;48.774;8.916;2022-09-01T04:00:31;18.67;;;13.68;;
54705;SDS011;40603;48.774;8.916;2022-09-01T04:03:00;17.67;;;13.00;;
54705;SDS011;40603;48.774;8.916;2022-09-01T04:05:27;17.25;;;12.90;;
54705;SDS011;40603;48.774;8.916;2022-09-01T04:07:54;15.73;;;11.35;;
54705;SDS011;40603;48.774;8.916;2022-09-01T04:10:20;15.95;;;11.70;;
54705;SDS011;40603;48.774;8.916;2022-09-01T04:12:46;16.73;;;11.32;;
54705;SDS011;40603;48.774;8.916;2022-09-01T04:15:12;13.45;;;10.00;;
54705;SDS011;40603;48.774;8.916;2022-09-01T04:17:38;15.52;;;9.95;;
54705;SDS011;40603;48.774;8.916;2022-09-01T04:20:22;16.58;;;9.23;;
54705;SDS011;40603;48.774;8.916;2022-09-01T04:22:49;11.77;;;9.98;;
54705;SDS011;40603;48.774;8.916;2022-09-01T04:25:15;14.93;;;10.23;;
54705;SDS011;40603;48.774;8.916;2022-09-01T04:27:42;24.05;;;11.88;;
54705;SDS011;40603;48.774;8.916;2022-09-01T04:30:09;13.52;;;12.10;;
54705;SDS011;40603;48.774;8.916;2022-09-01T04:32:36;15.88;;;12.00;;
54705;SDS011;40603;48.774;8.916;2022-09-01T04:35:02;17.75;;;12.02;;
54705;SDS011;40603;48.774;8.916;2022-09-01T04:37:31;11.57;;;10.35;;
54705;SDS011;40603;48.774;8.916;2022-09-01T04:40:00;10.65;;;9.18;;
54705;SDS011;40603;48.774;8.916;2022-09-01T04:42:26;10.80;;;9.50;;
54705;SDS011;40603;48.774;8.916;2022-09-01T04:44:53;18.02;;;11.27;;
54705;SDS011;40603;48.774;8.916;2022-09-01T04:47:21;15.60;;;11.05;;
54705;SDS011;40603;48.774;8.916;2022-09-01T04:49:54;13.70;;;10.38;;
54705;SDS011;40603;48.774;8.916;2022-09-01T04:52:24;35.20;;;10.73;;
54705;SDS011;40603;48.774;8.916;2022-09-01T04:54:49;19.00;;;11.60;;
54705;SDS011;40603;48.774;8.916;2022-09-01T04:57:15;35.38;;;11.13;;
54705;SDS011;40603;48.774;8.916;2022-09-01T04:59:41;19.60;;;13.27;;
54705;SDS011;40603;48.774;8.916;2022-09-01T05:02:07;17.20;;;13.32;;
54705;SDS011;40603;48.774;8.916;2022-09-01T05:04:33;19.52;;;14.30;;
54705;SDS011;40603;48.774;8.916;2022-09-01T05:07:00;20.45;;;15.50;;
54705;SDS011;40603;48.774;8.916;2022-09-01T05:09:28;21.30;;;13.82;;
54705;SDS011;40603;48.774;8.916;2022-09-01T05:11:59;15.60;;;12.95;;
54705;SDS011;40603;48.774;8.916;2022-09-01T05:14:42;13.55;;;12.07;;
54705;SDS011;40603;48.774;8.916;2022-09-01T05:17:11;13.75;;;12.35;;
54705;SDS011;40603;48.774;8.916;2022-09-01T05:19:38;13.98;;;12.20;;
54705;SDS011;40603;48.774;8.916;2022-09-01T05:22:06;14.90;;;12.80;;
54705;SDS011;40603;48.774;8.916;2022-09-01T05:24:32;22.83;;;14.10;;
54705;SDS011;40603;48.774;8.916;2022-09-01T05:26:58;22.55;;;14.75;;
54705;SDS011;40603;48.774;8.916;2022-09-01T05:29:24;14.88;;;12.80;;
54705;SDS011;40603;48.774;8.916;2022-09-01T05:31:51;16.92;;;12.82;;
54705;SDS011;40603;48.774;8.916;2022-09-01T05:34:18;15.00;;;11.85;;
54705;SDS011;40603;48.774;8.916;2022-09-01T05:36:46;15.35;;;12.20;;
54705;SDS011;40603;48.774;8.916;2022-09-01T05:39:14;13.90;;;10.77;;
54705;SDS011;40603;48.774;8.916;2022-09-01T05:41:39;13.65;;;11.70;;
54705;SDS011;40603;48.774;8.916;2022-09-01T05:44:06;18.35;;;14.52;;
54705;SDS011;40603;48.774;8.916;2022-09-01T05:46:32;17.95;;;14.85;;
54705;SDS011;40603;48.774;8.916;2022-09-01T05:48:59;18.35;;;14.90;;
54705;SDS011;40603;48.774;8.916;2022-09-01T05:51:25;22.63;;;16.25;;
54705;SDS011;40603;48.774;8.916;2022-09-01T05:53:53;21.33;;;16.10;;
54705;SDS011;40603;48.774;8.916;2022-09-01T05:56:22;25.03;;;17.00;;
54705;SDS011;40603;48.774;8.916;2022-09-01T05:58:48;22.77;;;17.17;;
54705;SDS011;40603;48.774;8.916;2022-09-01T06:01:21;25.30;;;16.67;;
54705;SDS011;40603;48.774;8.916;2022-09-01T06:03:52;26.05;;;17.38;;
54705;SDS011;40603;48.774;8.916;2022-09-01T06:08:46;22.27;;;16.67;;
54705;SDS011;40603;48.774;8.916;2022-09-01T06:11:13;24.50;;;18.42;;
54705;SDS011;40603;48.774;8.916;2022-09-01T06:13:40;31.10;;;17.20;;
54705;SDS011;40603;48.774;8.916;2022-09-01T06:16:11;24.42;;;17.92;;
54705;SDS011;40603;48.774;8.916;2022-09-01T06:18:39;22.95;;;16.85;;
54705;SDS011;40603;48.774;8.916;2022-09-01T06:21:07;26.08;;;19.27;;
54705;SDS011;40603;48.774;8.916;2022-09-01T06:23:33;34.10;;;21.10;;
54705;SDS011;40603;48.774;8.916;2022-09-01T06:26:00;27.02;;;21.13;;
54705;SDS011;40603;48.774;8.916;2022-09-01T06:28:27;25.13;;;19.65;;
54705;SDS011;40603;48.774;8.916;2022-09-01T06:30:53;31.20;;;21.88;;
54705;SDS011;40603;48.774;8.916;2022-09-01T06:33:21;29.60;;;20.10;;
54705;SDS011;40603;48.774;8.916;2022-09-01T06:35:49;27.65;;;19.92;;
54705;SDS011;40603;48.774;8.916;2022-09-01T06:38:16;21.15;;;17.73;;
54705;SDS011;40603;48.774;8.916;2022-09-01T06:40:43;33.47;;;20.75;;
54705;SDS011;40603;48.774;8.916;2022-09-01T06:43:09;33.92;;;22.50;;
54705;SDS011;40603;48.774;8.916;2022-09-01T06:45:40;30.23;;;19.63;;
54705;SDS011;40603;48.774;8.916;2022-09-01T06:48:07;28.98;;;21.35;;
54705;SDS011;40603;48.774;8.916;2022-09-01T06:50:33;33.03;;;23.02;;
54705;SDS011;40603;48.774;8.916;2022-09-01T06:52:59;30.90;;;21.42;;
54705;SDS011;40603;48.774;8.916;2022-09-01T06:55:32;30.05;;;22.70;;
54705;SDS011;40603;48.774;8.916;2022-09-01T06:57:58;28.25;;;20.35;;
54705;SDS011;40603;48.774;8.916;2022-09-01T07:00:24;27.38;;;20.38;;
54705;SDS011;40603;48.774;8.916;2022-09-01T07:02:54;32.50;;;20.60;;
54705;SDS011;40603;48.774;8.916;2022-09-01T07:07:46;33.65;;;21.50;;
54705;SDS011;40603;48.774;8.916;2022-09-01T07:10:14;30.23;;;21.17;;
54705;SDS011;40603;48.774;8.916;2022-09-01T07:12:43;28.98;;;19.00;;
54705;SDS011;40603;48.774;8.916;2022-09-01T07:15:10;27.95;;;19.42;;
54705;SDS011;40603;48.774;8.916;2022-09-01T07:17:41;28.92;;;19.33;;
54705;SDS011;40603;48.774;8.916;2022-09-01T07:20:07;25.63;;;17.10;;
54705;SDS011;40603;48.774;8.916;2022-09-01T07:22:35;27.70;;;18.45;;
54705;SDS011;40603;48.774;8.916;2022-09-01T07:25:00;22.63;;;16.15;;
54705;SDS011;40603;48.774;8.916;2022-09-01T07:27:26;21.83;;;16.08;;
54705;SDS011;40603;48.774;8.916;2022-09-01T07:29:52;25.33;;;15.90;;
54705;SDS011;40603;48.774;8.916;2022-09-01T07:32:21;22.73;;;15.98;;
54705;SDS011;40603;48.774;8.916;2022-09-01T07:34:47;20.73;;;15.35;;
54705;SDS011;40603;48.774;8.916;2022-09-01T07:37:12;21.45;;;15.88;;
54705;SDS011;40603;48.774;8.916;2022-09-01T07:39:37;22.67;;;16.50;;
54705;SDS011;40603;48.774;8.916;2022-09-01T07:42:08;23.20;;;16.38;;
54705;SDS011;40603;48.774;8.916;2022-09-01T07:44:35;23.05;;;16.58;;
54705;SDS011;40603;48.774;8.916;2022-09-01T07:47:03;22.45;;;15.57;;
54705;SDS011;40603;48.774;8.916;2022-09-01T07:49:33;18.23;;;14.07;;
54705;SDS011;40603;48.774;8.916;2022-09-01T07:52:00;20.30;;;15.95;;
54705;SDS011;40603;48.774;8.916;2022-09-01T07:54:27;27.42;;;16.45;;
54705;SDS011;40603;48.774;8.916;2022-09-01T07:56:54;21.83;;;16.13;;
54705;SDS011;40603;48.774;8.916;2022-09-01T07:59:19;22.25;;;14.43;;
54705;SDS011;40603;48.774;8.916;2022-09-01T08:01:45;20.30;;;13.52;;
54705;SDS011;40603;48.774;8.916;2022-09-01T08:04:11;20.15;;;14.13;;
54705;SDS011;40603;48.774;8.916;2022-09-01T08:06:36;21.30;;;15.02;;
54705;SDS011;40603;48.774;8.916;2022-09-01T08:09:02;20.27;;;14.82;;
54705;SDS011;40603;48.774;8.916;2022-09-01T08:11:30;17.00;;;13.13;;
54705;SDS011;40603;48.774;8.916;2022-09-01T08:13:56;20.20;;;13.55;;
54705;SDS011;40603;48.774;8.916;2022-09-01T08:16:26;13.88;;;11.48;;
54705;SDS011;40603;48.774;8.916;2022-09-01T08:18:52;17.48;;;11.85;;
54705;SDS011;40603;48.774;8.916;2022-09-01T08:21:20;16.98;;;11.88;;
54705;SDS011;40603;48.774;8.916;2022-09-01T08:23:47;17.65;;;12.68;;
54705;SDS011;40603;48.774;8.916;2022-09-01T08:26:17;15.65;;;11.60;;
54705;SDS011;40603;48.774;8.916;2022-09-01T08:28:43;16.02;;;12.20;;
54705;SDS011;40603;48.774;8.916;2022-09-01T08:31:09;12.73;;;10.43;;
54705;SDS011;40603;48.774;8.916;2022-09-01T08:33:36;12.68;;;9.23;;
54705;SDS011;40603;48.774;8.916;2022-09-01T08:36:02;14.15;;;9.98;;
54705;SDS011;40603;48.774;8.916;2022-09-01T08:38:28;14.60;;;11.90;;
54705;SDS011;40603;48.774;8.916;2022-09-01T08:40:54;15.27;;;11.05;;
54705;SDS011;40603;48.774;8.916;2022-09-01T08:45:57;14.07;;;10.63;;
54705;SDS011;40603;48.774;8.916;2022-09-01T08:48:37;18.83;;;11.32;;
54705;SDS011;40603;48.774;8.916;2022-09-01T08:51:25;16.20;;;11.07;;
54705;SDS011;40603;48.774;8.916;2022-09-01T08:56:34;16.40;;;11.63;;
54705;SDS011;40603;48.774;8.916;2022-09-01T08:59:01;15.88;;;11.20;;
54705;SDS011;40603;48.774;8.916;2022-09-01T09:01:35;12.70;;;9.70;;
54705;SDS011;40603;48.774;8.916;2022-09-01T09:06:39;16.30;;;10.38;;
54705;SDS011;40603;48.774;8.916;2022-09-01T09:09:27;14.23;;;10.05;;
54705;SDS011;40603;48.774;8.916;2022-09-01T09:17:50;11.90;;;9.50;;
54705;SDS011;40603;48.774;8.916;2022-09-01T09:20:23;10.15;;;8.95;;
54705;SDS011;40603;48.774;8.916;2022-09-01T09:22:49;14.00;;;9.63;;
54705;SDS011;40603;48.774;8.916;2022-09-01T09:25:16;12.95;;;9.35;;
54705;SDS011;40603;48.774;8.916;2022-09-01T09:27:44;11.32;;;8.88;;
54705;SDS011;40603;48.774;8.916;2022-09-01T09:30:11;12.32;;;9.85;;
54705;SDS011;40603;48.774;8.916;2022-09-01T09:37:43;13.43;;;7.40;;
54705;SDS011;40603;48.774;8.916;2022-09-01T09:40:10;9.07;;;7.03;;
54705;SDS011;40603;48.774;8.916;2022-09-01T09:42:42;8.43;;;6.32;;
54705;SDS011;40603;48.774;8.916;2022-09-01T09:45:35;8.15;;;6.40;;
54705;SDS011;40603;48.774;8.916;2022-09-01T09:48:04;7.90;;;6.18;;
54705;SDS011;40603;48.774;8.916;2022-09-01T09:50:35;8.15;;;5.88;;
54705;SDS011;40603;48.774;8.916;2022-09-01T09:55:51;9.65;;;6.72;;
54705;SDS011;40603;48.774;8.916;2022-09-01T09:58:19;9.85;;;6.32;;
54705;SDS011;40603;48.774;8.916;2022-09-01T10:00:59;7.35;;;6.35;;
54705;SDS011;40603;48.774;8.916;2022-09-01T10:03:34;6.13;;;5.53;;
54705;SDS011;40603;48.774;8.916;2022-09-01T10:06:01;6.85;;;5.38;;
54705;SDS011;40603;48.774;8.916;2022-09-01T10:10:51;10.17;;;7.20;;
54705;SDS011;40603;48.774;8.916;2022-09-01T10:13:18;8.60;;;5.00;;
54705;SDS011;40603;48.774;8.916;2022-09-01T10:15:49;5.32;;;4.75;;
54705;SDS011;40603;48.774;8.916;2022-09-01T10:18:22;5.50;;;4.38;;
54705;SDS011;40603;48.774;8.916;2022-09-01T10:20:55;5.00;;;3.17;;
54705;SDS011;40603;48.774;8.916;2022-09-01T10:23:24;3.53;;;2.70;;
54705;SDS011;40603;48.774;8.916;2022-09-01T10:25:51;3.40;;;2.85;;
54705;SDS011;40603;48.774;8.916;2022-09-01T10:28:21;3.58;;;3.28;;
54705;SDS011;40603;48.774;8.916;2022-09-01T10:30:48;5.20;;;3.60;;
54705;SDS011;40603;48.774;8.916;2022-09-01T10:33:16;5.55;;;4.85;;
54705;SDS011;40603;48.774;8.916;2022-09-01T10:35:43;12.55;;;5.88;;
54705;SDS011;40603;48.774;8.916;2022-09-01T10:38:29;10.95;;;5.72;;
54705;SDS011;40603;48.774;8.916;2022-09-01T10:40:55;6.72;;;4.68;;
54705;SDS011;40603;48.774;8.916;2022-09-01T10:53:41;4.65;;;3.30;;
54705;SDS011;40603;48.774;8.916;2022-09-01T10:56:21;4.95;;;3.70;;
54705;SDS011;40603;48.774;8.916;2022-09-01T10:58:58;6.60;;;3.45;;
54705;SDS011;40603;48.774;8.916;2022-09-01T11:04:07;4.97;;;3.70;;
54705;SDS011;40603;48.774;8.916;2022-09-01T11:09:05;4.32;;;3.00;;
54705;SDS011;40603;48.774;8.916;2022-09-01T11:14:21;3.83;;;2.92;;
54705;SDS011;40603;48.774;8.916;2022-09-01T11:17:09;3.55;;;2.88;;
54705;SDS011;40603;48.774;8.916;2022-09-01T11:19:38;3.42;;;2.67;;
54705;SDS011;40603;48.774;8.916;2022-09-01T11:22:12;3.63;;;2.45;;
54705;SDS011;40603;48.774;8.916;2022-09-01T11:30:55;5.30;;;3.15;;
54705;SDS011;40603;48.774;8.916;2022-09-01T11:36:11;3.75;;;2.70;;
54705;SDS011;40603;48.774;8.916;2022-09-01T11:38:47;5.00;;;3.00;;
54705;SDS011;40603;48.774;8.916;2022-09-01T11:41:31;4.05;;;2.40;;
54705;SDS011;40603;48.774;8.916;2022-09-01T11:44:01;3.60;;;2.80;;
54705;SDS011;40603;48.774;8.916;2022-09-01T11:46:32;3.75;;;2.50;;
54705;SDS011;40603;48.774;8.916;2022-09-01T11:48:59;2.50;;;2.20;;
54705;SDS011;40603;48.774;8.916;2022-09-01T11:51:44;2.40;;;2.15;;
54705;SDS011;40603;48.774;8.916;2022-09-01T11:54:11;2.55;;;2.00;;
54705;SDS011;40603;48.774;8.916;2022-09-01T11:56:37;4.32;;;2.30;;
54705;SDS011;40603;48.774;8.916;2022-09-01T11:59:02;5.50;;;2.45;;
54705;SDS011;40603;48.774;8.916;2022-09-01T12:01:32;2.67;;;2.40;;
54705;SDS011;40603;48.774;8.916;2022-09-01T12:04:16;3.38;;;2.20;;
54705;SDS011;40603;48.774;8.916;2022-09-01T12:06:50;3.38;;;2.72;;
54705;SDS011;40603;48.774;8.916;2022-09-01T12:09:17;3.47;;;2.33;;
54705;SDS011;40603;48.774;8.916;2022-09-01T12:11:42;4.28;;;2.30;;
54705;SDS011;40603;48.774;8.916;2022-09-01T12:14:08;3.05;;;2.30;;
54705;SDS011;40603;48.774;8.916;2022-09-01T12:16:36;4.05;;;2.72;;
54705;SDS011;40603;48.774;8.916;2022-09-01T12:19:04;3.28;;;2.67;;
54705;SDS011;40603;48.774;8.916;2022-09-01T12:21:31;3.08;;;2.80;;
54705;SDS011;40603;48.774;8.916;2022-09-01T12:26:37;3.83;;;2.75;;
54705;SDS011;40603;48.774;8.916;2022-09-01T12:29:03;3.97;;;2.83;;
54705;SDS011;40603;48.774;8.916;2022-09-01T12:31:30;3.78;;;2.92;;
54705;SDS011;40603;48.774;8.916;2022-09-01T12:33:56;4.82;;;2.90;;
54705;SDS011;40603;48.774;8.916;2022-09-01T12:36:29;4.03;;;2.78;;
54705;SDS011;40603;48.774;8.916;2022-09-01T12:39:18;5.57;;;2.97;;
54705;SDS011;40603;48.774;8.916;2022-09-01T12:41:46;7.15;;;3.10;;
54705;SDS011;40603;48.774;8.916;2022-09-01T12:50:05;2.80;;;2.50;;
54705;SDS011;40603;48.774;8.916;2022-09-01T12:52:43;4.88;;;2.53;;
54705;SDS011;40603;48.774;8.916;2022-09-01T12:55:14;4.25;;;2.30;;
54705;SDS011;40603;48.774;8.916;2022-09-01T12:57:45;5.35;;;2.47;;
54705;SDS011;40603;48.774;8.916;2022-09-01T13:00:19;2.53;;;2.08;;
54705;SDS011;40603;48.774;8.916;2022-09-01T13:05:19;1.95;;;1.85;;
54705;SDS011;40603;48.774;8.916;2022-09-01T13:07:56;2.08;;;1.88;;
54705;SDS011;40603;48.774;8.916;2022-09-01T13:10:25;3.80;;;2.10;;
54705;SDS011;40603;48.774;8.916;2022-09-01T13:12:52;2.53;;;1.95;;
54705;SDS011;40603;48.774;8.916;2022-09-01T13:15:19;2.33;;;1.73;;
54705;SDS011;40603;48.774;8.916;2022-09-01T13:17:45;2.22;;;1.77;;
54705;SDS011;40603;48.774;8.916;2022-09-01T13:20:10;2.35;;;1.95;;
54705;SDS011;40603;48.774;8.916;2022-09-01T13:22:36;3.22;;;2.13;;
54705;SDS011;40603;48.774;8.916;2022-09-01T13:25:02;3.00;;;2.30;;
54705;SDS011;40603;48.774;8.916;2022-09-01T13:27:28;1.83;;;1.73;;
54705;SDS011;40603;48.774;8.916;2022-09-01T13:29:53;2.42;;;2.17;;
54705;SDS011;40603;48.774;8.916;2022-09-01T13:32:20;3.88;;;2.55;;
54705;SDS011;40603;48.774;8.916;2022-09-01T13:34:46;4.65;;;2.65;;
54705;SDS011;40603;48.774;8.916;2022-09-01T13:37:12;5.20;;;2.70;;
54705;SDS011;40603;48.774;8.916;2022-09-01T13:39:37;5.43;;;2.65;;
54705;SDS011;40603;48.774;8.916;2022-09-01T13:42:03;3.22;;;2.58;;
54705;SDS011;40603;48.774;8.916;2022-09-01T13:44:28;5.05;;;2.75;;
54705;SDS011;40603;48.774;8.916;2022-09-01T13:46:53;3.22;;;2.58;;
54705;SDS011;40603;48.774;8.916;2022-09-01T13:49:19;5.03;;;2.67;;
54705;SDS011;40603;48.774;8.916;2022-09-01T13:51:49;4.65;;;3.00;;
54705;SDS011;40603;48.774;8.916;2022-09-01T13:54:15;3.75;;;2.67;;
54705;SDS011;40603;48.774;8.916;2022-09-01T13:56:41;2.50;;;2.25;;
54705;SDS011;40603;48.774;8.916;2022-09-01T13:59:06;3.00;;;2.70;;
54705;SDS011;40603;48.774;8.916;2022-09-01T14:01:31;5.18;;;2.83;;
54705;SDS011;40603;48.774;8.916;2022-09-01T14:03:57;2.70;;;2.50;;
54705;SDS011;40603;48.774;8.916;2022-09-01T14:06:23;3.88;;;2.60;;
54705;SDS011;40603;48.774;8.916;2022-09-01T14:08:48;3.97;;;2.85;;
54705;SDS011;40603;48.774;8.916;2022-09-01T14:11:15;3.78;;;2.63;;
54705;SDS011;40603;48.774;8.916;2022-09-01T14:13:41;3.63;;;2.58;;
54705;SDS011;40603;48.774;8.916;2022-09-01T14:16:10;3.08;;;2.55;;
54705;SDS011;40603;48.774;8.916;2022-09-01T14:18:36;3.10;;;2.28;;
54705;SDS011;40603;48.774;8.916;2022-09-01T14:21:02;2.63;;;2.08;;
54705;SDS011;40603;48.774;8.916;2022-09-01T14:23:28;3.05;;;2.70;;
54705;SDS011;40603;48.774;8.916;2022-09-01T14:25:53;2.30;;;2.10;;
54705;SDS011;40603;48.774;8.916;2022-09-01T14:28:20;2.78;;;2.35;;
54705;SDS011;40603;48.774;8.916;2022-09-01T14:30:46;3.35;;;2.30;;
54705;SDS011;40603;48.774;8.916;2022-09-01T14:33:12;2.63;;;2.25;;
54705;SDS011;40603;48.774;8.916;2022-09-01T14:35:39;2.63;;;2.22;;
54705;SDS011;40603;48.774;8.916;2022-09-01T14:38:05;2.20;;;1.95;;
54705;SDS011;40603;48.774;8.916;2022-09-01T14:40:31;7.78;;;6.10;;
54705;SDS011;40603;48.774;8.916;2022-09-01T14:42:56;3.70;;;2.65;;
54705;SDS011;40603;48.774;8.916;2022-09-01T14:45:22;4.05;;;2.08;;
54705;SDS011;40603;48.774;8.916;2022-09-01T14:47:51;2.60;;;2.40;;
54705;SDS011;40603;48.774;8.916;2022-09-01T14:50:18;2.22;;;2.03;;
54705;SDS011;40603;48.774;8.916;2022-09-01T14:52:44;2.35;;;1.98;;
54705;SDS011;40603;48.774;8.916;2022-09-01T14:55:11;2.50;;;1.95;;
54705;SDS011;40603;48.774;8.916;2022-09-01T14:57:36;5.28;;;2.30;;
54705;SDS011;40603;48.774;8.916;2022-09-01T15:00:03;2.85;;;2.03;;
54705;SDS011;40603;48.774;8.916;2022-09-01T15:02:39;2.38;;;2.17;;
54705;SDS011;40603;48.774;8.916;2022-09-01T15:05:05;2.97;;;2.65;;
54705;SDS011;40603;48.774;8.916;2022-09-01T15:07:31;3.55;;;2.40;;
54705;SDS011;40603;48.774;8.916;2022-09-01T15:09:56;4.25;;;2.55;;
54705;SDS011;40603;48.774;8.916;2022-09-01T15:12:23;3.33;;;2.38;;
54705;SDS011;40603;48.774;8.916;2022-09-01T15:14:48;2.50;;;2.30;;
54705;SDS011;40603;48.774;8.916;2022-09-01T15:17:14;3.17;;;2.13;;
54705;SDS011;40603;48.774;8.916;2022-09-01T15:19:39;2.13;;;1.90;;
54705;SDS011;40603;48.774;8.916;2022-09-01T15:22:05;2.80;;;2.08;;
54705;SDS011;40603;48.774;8.916;2022-09-01T15:24:32;5.82;;;2.35;;
54705;SDS011;40603;48.774;8.916;2022-09-01T15:26:57;2.75;;;2.42;;
54705;SDS011;40603;48.774;8.916;2022-09-01T15:29:23;3.35;;;2.70;;
54705;SDS011;40603;48.774;8.916;2022-09-01T15:31:48;2.40;;;2.20;;
54705;SDS011;40603;48.774;8.916;2022-09-01T15:34:13;2.40;;;2.20;;
54705;SDS011;40603;48.774;8.916;2022-09-01T15:36:41;2.38;;;2.17;;
54705;SDS011;40603;48.774;8.916;2022-09-01T15:39:08;2.08;;;1.92;;
54705;SDS011;40603;48.774;8.916;2022-09-01T15:41:34;4.28;;;2.08;;
54705;SDS011;40603;48.774;8.916;2022-09-01T15:44:01;2.13;;;1.92;;
54705;SDS011;40603;48.774;8.916;2022-09-01T15:46:29;3.83;;;1.90;;
54705;SDS011;40603;48.774;8.916;2022-09-01T15:48:57;1.90;;;1.80;;
54705;SDS011;40603;48.774;8.916;2022-09-01T15:54:35;8.68;;;1.80;;